Time;durP1;ratioP1;P1;durP2;ratioP2;P2;SDS_P1;SDS_P2;PMS_P1;PMS_P2;Temp;Humidity;BMP_temperature;BMP_pressure;BME280_temperature;BME280_humidity;BME280_pressure;Samples;Min_cycle;Max_cycle;Signal;HPM_P1;HPM_P2
2021/06/09 00:00:35;;;;;;;6.97;4.80;;;19.60;99.90;;;;;;5072989;28;20213;-71
2021/06/09 00:03:02;;;;;;;6.38;4.22;;;19.50;99.90;;;;;;5073139;28;20237;-72
2021/06/09 00:05:30;;;;;;;4.10;3.70;;;19.50;99.90;;;;;;5072857;28;20202;-71
2021/06/09 00:07:56;;;;;;;3.30;3.00;;;19.40;99.90;;;;;;5072595;28;20634;-72
2021/06/09 00:10:23;;;;;;;7.68;3.25;;;19.30;99.90;;;;;;5072989;28;20203;-71
2021/06/09 00:12:49;;;;;;;4.63;4.07;;;19.20;99.90;;;;;;5072902;28;20614;-71
2021/06/09 00:15:17;;;;;;;4.07;3.60;;;19.10;99.90;;;;;;5072822;28;20373;-72
2021/06/09 00:17:44;;;;;;;2.95;2.42;;;19.10;99.90;;;;;;5072445;28;20666;-71
2021/06/09 00:20:16;;;;;;;5.43;3.35;;;19.00;99.90;;;;;;5072926;28;20210;-72
2021/06/09 00:22:44;;;;;;;3.28;2.97;;;18.90;99.90;;;;;;5071860;28;20226;-72
2021/06/09 00:25:15;;;;;;;3.28;3.00;;;18.70;99.90;;;;;;5072859;28;20202;-71
2021/06/09 00:27:42;;;;;;;4.68;3.10;;;18.80;99.90;;;;;;5072214;28;20248;-72
2021/06/09 00:30:11;;;;;;;2.92;2.72;;;18.80;99.90;;;;;;5072800;28;20634;-72
2021/06/09 00:32:37;;;;;;;4.80;2.60;;;18.80;99.90;;;;;;5071770;28;20688;-71
2021/06/09 00:35:06;;;;;;;4.97;2.80;;;18.70;99.90;;;;;;5072232;28;20210;-71
2021/06/09 00:37:32;;;;;;;3.28;2.97;;;18.80;99.90;;;;;;5071508;28;20206;-71
2021/06/09 00:40:00;;;;;;;2.60;2.40;;;18.90;99.90;;;;;;5072613;28;20206;-71
2021/06/09 00:42:27;;;;;;;4.63;3.35;;;18.80;99.90;;;;;;5072032;28;20613;-72
2021/06/09 00:44:53;;;;;;;3.17;2.88;;;18.70;99.90;;;;;;5071711;28;20213;-72
2021/06/09 00:47:21;;;;;;;3.90;3.20;;;18.50;99.90;;;;;;5072395;28;20210;-71
2021/06/09 00:49:48;;;;;;;3.33;3.03;;;18.60;99.90;;;;;;5071680;28;20206;-72
2021/06/09 00:52:14;;;;;;;3.10;2.90;;;18.60;99.90;;;;;;5072126;28;20202;-72
2021/06/09 00:54:41;;;;;;;3.72;3.42;;;18.60;99.90;;;;;;5071367;28;20657;-72
2021/06/09 00:57:10;;;;;;;6.55;4.15;;;18.50;99.90;;;;;;5071953;28;20206;-72
2021/06/09 00:59:37;;;;;;;4.78;3.92;;;18.50;99.90;;;;;;5070159;28;20751;-72
2021/06/09 01:02:05;;;;;;;7.43;3.88;;;18.50;99.90;;;;;;5070383;28;20233;-72
2021/06/09 01:04:32;;;;;;;5.80;3.72;;;18.50;99.90;;;;;;5071569;28;20205;-72
2021/06/09 01:07:00;;;;;;;9.82;3.80;;;18.40;99.90;;;;;;5071678;28;20210;-71
2021/06/09 01:09:27;;;;;;;4.53;3.30;;;18.30;99.90;;;;;;5071784;28;20210;-71
2021/06/09 01:11:54;;;;;;;4.70;4.30;;;18.40;99.90;;;;;;5071607;28;20255;-72
2021/06/09 01:14:23;;;;;;;4.00;3.70;;;18.20;99.90;;;;;;5071509;28;20613;-73
2021/06/09 01:16:50;;;;;;;5.22;4.32;;;18.30;99.90;;;;;;5070627;28;20653;-73
2021/06/09 01:19:18;;;;;;;5.97;3.88;;;18.10;99.90;;;;;;5071843;28;20214;-73
2021/06/09 01:21:46;;;;;;;8.35;4.10;;;18.20;99.90;;;;;;5070800;28;20275;-73
2021/06/09 01:24:13;;;;;;;5.82;4.13;;;18.30;99.90;;;;;;5071772;28;20715;-73
2021/06/09 01:26:40;;;;;;;9.10;4.47;;;18.30;99.90;;;;;;5070950;28;20202;-73
2021/06/09 01:29:09;;;;;;;7.20;3.92;;;18.20;99.90;;;;;;5071050;28;20666;-73
2021/06/09 01:31:36;;;;;;;5.18;4.68;;;18.20;99.90;;;;;;5071223;28;20210;-73
2021/06/09 01:34:06;;;;;;;4.68;4.22;;;18.20;99.90;;;;;;5070820;28;20202;-73
2021/06/09 01:36:35;;;;;;;8.15;4.65;;;18.20;99.90;;;;;;5070872;28;20607;-73
2021/06/09 01:39:09;;;;;;;6.88;4.82;;;18.10;99.90;;;;;;5071221;28;20213;-73
2021/06/09 01:41:35;;;;;;;5.20;4.47;;;18.10;99.90;;;;;;5070728;28;20210;-73
2021/06/09 01:44:02;;;;;;;5.88;4.47;;;18.00;99.90;;;;;;5070953;28;21014;-71
2021/06/09 01:46:28;;;;;;;7.13;3.97;;;18.00;99.90;;;;;;5071421;28;20209;-71
2021/06/09 01:48:55;;;;;;;9.05;4.93;;;18.00;99.90;;;;;;5071413;28;20221;-72
2021/06/09 01:51:21;;;;;;;11.57;4.78;;;18.00;99.90;;;;;;5057463;28;20206;-71
2021/06/09 01:53:48;;;;;;;7.80;4.65;;;17.90;99.90;;;;;;5070807;28;20210;-71
2021/06/09 01:56:16;;;;;;;5.63;4.53;;;17.90;99.90;;;;;;5069996;28;20202;-71
2021/06/09 01:58:43;;;;;;;7.10;5.80;;;17.80;99.90;;;;;;5070438;28;20213;-71
2021/06/09 02:01:12;;;;;;;9.27;5.00;;;17.70;99.90;;;;;;5070842;28;20206;-70
2021/06/09 02:03:39;;;;;;;5.15;3.70;;;17.80;99.90;;;;;;5070368;28;20234;-71
2021/06/09 02:06:05;;;;;;;3.83;3.53;;;17.80;99.90;;;;;;5070818;28;20221;-71
2021/06/09 02:08:32;;;;;;;4.97;4.57;;;17.80;99.90;;;;;;5070194;28;20585;-71
2021/06/09 02:11:00;;;;;;;4.53;3.92;;;17.90;99.90;;;;;;5070551;28;20217;-71
2021/06/09 02:13:31;;;;;;;4.00;3.70;;;17.80;99.90;;;;;;5070638;28;20260;-71
2021/06/09 02:15:59;;;;;;;4.30;4.00;;;17.70;99.90;;;;;;5070507;28;20237;-71
2021/06/09 02:18:28;;;;;;;4.15;3.58;;;17.80;99.90;;;;;;5070725;28;20205;-70
2021/06/09 02:20:56;;;;;;;4.28;3.97;;;17.80;99.90;;;;;;5070739;28;20245;-71
2021/06/09 02:23:25;;;;;;;4.20;3.90;;;17.70;99.90;;;;;;5070331;28;20735;-72
2021/06/09 02:25:56;;;;;;;5.30;3.97;;;17.70;99.90;;;;;;5070725;28;20209;-71
2021/06/09 02:28:27;;;;;;;5.60;4.00;;;17.70;99.90;;;;;;5070550;28;20206;-71
2021/06/09 02:30:55;;;;;;;3.92;3.63;;;17.60;99.90;;;;;;5070261;28;20228;-71
2021/06/09 02:33:25;;;;;;;3.70;3.40;;;17.60;99.90;;;;;;5070685;28;20206;-71
2021/06/09 02:35:53;;;;;;;3.67;3.28;;;17.70;99.90;;;;;;5070130;28;20202;-71
2021/06/09 02:38:20;;;;;;;6.13;3.92;;;17.60;99.90;;;;;;5070682;28;20210;-71
2021/06/09 02:40:50;;;;;;;5.97;3.97;;;17.60;99.90;;;;;;5070024;28;20210;-71
2021/06/09 02:43:17;;;;;;;4.60;3.67;;;17.60;99.90;;;;;;5070790;28;20253;-71
2021/06/09 02:45:49;;;;;;;8.80;4.22;;;17.60;99.90;;;;;;5069926;28;20198;-71
2021/06/09 02:48:19;;;;;;;7.75;4.05;;;17.60;99.90;;;;;;5070213;28;20206;-72
2021/06/09 02:50:46;;;;;;;6.45;4.05;;;17.50;99.90;;;;;;5069635;28;20727;-71
2021/06/09 02:53:22;;;;;;;6.18;4.40;;;17.40;99.90;;;;;;5070121;28;20230;-71
2021/06/09 02:56:03;;;;;;;4.38;3.97;;;17.50;99.90;;;;;;5069843;28;20251;-72
2021/06/09 02:58:37;;;;;;;8.40;4.82;;;17.50;99.90;;;;;;5070030;28;20206;-72
2021/06/09 03:01:11;;;;;;;4.60;4.30;;;17.50;99.90;;;;;;5070128;28;20324;-72
2021/06/09 03:03:44;;;;;;;4.55;4.25;;;17.60;99.90;;;;;;5069710;28;20229;-71
2021/06/09 03:06:19;;;;;;;5.30;4.43;;;17.40;99.90;;;;;;5069838;28;20689;-72
2021/06/09 03:08:56;;;;;;;4.15;3.85;;;17.40;99.90;;;;;;5072840;28;20708;-72
2021/06/09 03:11:28;;;;;;;6.07;4.03;;;17.50;99.90;;;;;;5073971;28;20669;-71
2021/06/09 03:14:03;;;;;;;4.18;3.65;;;17.30;99.90;;;;;;5074514;28;20209;-71
2021/06/09 03:16:35;;;;;;;4.45;3.42;;;17.30;99.90;;;;;;5073293;28;20243;-72
2021/06/09 03:19:08;;;;;;;5.68;4.22;;;17.30;99.90;;;;;;5073895;28;20293;-71
2021/06/09 03:21:41;;;;;;;9.27;5.03;;;17.40;99.90;;;;;;5073275;28;20214;-72
2021/06/09 03:24:13;;;;;;;4.32;3.80;;;17.50;99.90;;;;;;5073819;28;20225;-72
2021/06/09 03:26:47;;;;;;;4.00;3.70;;;17.50;99.90;;;;;;5073187;28;20209;-72
2021/06/09 03:29:24;;;;;;;4.38;3.97;;;17.60;99.90;;;;;;5073799;28;20221;-72
2021/06/09 03:31:54;;;;;;;6.30;4.45;;;17.50;99.90;;;;;;5073036;28;20234;-71
2021/06/09 03:34:26;;;;;;;4.03;3.53;;;17.30;99.90;;;;;;5073342;28;20700;-71
2021/06/09 03:36:57;;;;;;;10.38;3.78;;;17.10;99.90;;;;;;5073412;28;20225;-72
2021/06/09 03:39:24;;;;;;;3.92;3.58;;;17.00;99.90;;;;;;5073801;28;20206;-72
2021/06/09 03:41:53;;;;;;;3.65;3.35;;;17.10;99.90;;;;;;5073113;28;20206;-71
2021/06/09 03:44:24;;;;;;;4.43;4.03;;;17.00;99.90;;;;;;5073407;28;20234;-72
2021/06/09 03:46:51;;;;;;;5.70;3.58;;;17.00;99.90;;;;;;5072975;28;20263;-71
2021/06/09 03:49:19;;;;;;;4.03;3.50;;;17.20;99.90;;;;;;5073458;28;20206;-71
2021/06/09 03:51:47;;;;;;;3.40;3.10;;;17.10;99.90;;;;;;5072842;28;20666;-71
2021/06/09 03:54:16;;;;;;;5.53;3.80;;;16.90;99.90;;;;;;5073038;28;20206;-72
2021/06/09 03:56:44;;;;;;;3.00;2.80;;;17.00;99.90;;;;;;5073121;28;20210;-71
2021/06/09 03:59:14;;;;;;;4.70;3.80;;;17.00;99.90;;;;;;5072795;28;20681;-71
2021/06/09 04:01:42;;;;;;;4.15;3.75;;;17.00;99.90;;;;;;5072492;28;20210;-71
2021/06/09 04:04:10;;;;;;;4.70;3.25;;;17.20;99.90;;;;;;5072634;28;20255;-71
2021/06/09 04:06:40;;;;;;;2.70;2.50;;;17.20;99.90;;;;;;5072905;28;20209;-71
2021/06/09 04:09:10;;;;;;;3.95;3.35;;;17.10;99.90;;;;;;5072798;28;20213;-71
2021/06/09 04:11:37;;;;;;;6.65;3.40;;;17.10;99.90;;;;;;5072429;28;20198;-71
2021/06/09 04:14:09;;;;;;;7.10;4.53;;;16.80;99.90;;;;;;5072628;28;20210;-71
2021/06/09 04:16:37;;;;;;;3.42;3.13;;;17.00;99.90;;;;;;5072215;28;20658;-70
2021/06/09 04:19:05;;;;;;;3.67;3.38;;;17.00;99.90;;;;;;5072230;28;20619;-70
2021/06/09 04:21:32;;;;;;;8.77;3.83;;;16.90;99.90;;;;;;5073191;28;20708;-71
2021/06/09 04:23:59;;;;;;;3.95;3.58;;;16.90;99.90;;;;;;5072825;28;20667;-70
2021/06/09 04:26:29;;;;;;;4.28;3.00;;;17.00;99.90;;;;;;5071182;28;20198;-71
2021/06/09 04:28:56;;;;;;;4.05;3.63;;;16.90;99.90;;;;;;5071784;28;20213;-70
2021/06/09 04:31:24;;;;;;;4.47;2.85;;;17.00;99.90;;;;;;5072744;28;20644;-71
2021/06/09 04:33:55;;;;;;;3.47;3.17;;;16.90;99.90;;;;;;5071824;28;20704;-70
2021/06/09 04:36:22;;;;;;;3.58;2.97;;;16.90;99.90;;;;;;5072974;28;20202;-69
2021/06/09 04:38:49;;;;;;;4.88;3.50;;;16.80;99.90;;;;;;5071764;28;20202;-70
2021/06/09 04:41:15;;;;;;;4.65;3.80;;;17.00;99.90;;;;;;5072684;28;20256;-70
2021/06/09 04:43:43;;;;;;;8.20;3.63;;;17.10;99.90;;;;;;5071595;28;20237;-71
2021/06/09 04:46:10;;;;;;;3.75;3.45;;;17.00;99.90;;;;;;5072291;28;20202;-71
2021/06/09 04:48:36;;;;;;;4.25;3.85;;;16.80;99.90;;;;;;5071850;28;20662;-71
2021/06/09 04:51:03;;;;;;;5.70;4.60;;;17.00;99.90;;;;;;5072252;28;20205;-72
2021/06/09 04:53:30;;;;;;;4.18;3.88;;;17.10;99.90;;;;;;5071502;28;20206;-72
2021/06/09 04:55:56;;;;;;;7.70;3.42;;;17.10;99.90;;;;;;5072023;28;20202;-72
2021/06/09 04:58:25;;;;;;;4.25;3.92;;;17.00;99.90;;;;;;5072239;28;20233;-71
2021/06/09 05:00:53;;;;;;;5.78;3.60;;;17.00;99.90;;;;;;5071071;28;20225;-71
2021/06/09 05:03:20;;;;;;;4.57;4.18;;;17.10;99.90;;;;;;5071858;28;20226;-71
2021/06/09 05:05:50;;;;;;;3.35;3.13;;;17.20;99.90;;;;;;5071493;28;20214;-71
2021/06/09 05:08:16;;;;;;;4.88;3.75;;;17.10;99.90;;;;;;5071767;28;20582;-71
2021/06/09 05:10:43;;;;;;;3.80;3.50;;;17.10;99.90;;;;;;5071716;28;20287;-71
2021/06/09 05:13:16;;;;;;;4.10;3.80;;;17.10;99.90;;;;;;5071550;28;20217;-71
2021/06/09 05:15:49;;;;;;;6.30;4.35;;;17.10;99.90;;;;;;5071549;28;20202;-71
2021/06/09 05:18:21;;;;;;;6.55;3.92;;;17.10;99.90;;;;;;5071417;28;20264;-71
2021/06/09 05:20:50;;;;;;;7.20;4.20;;;17.20;99.90;;;;;;5071029;28;20217;-70
2021/06/09 05:23:21;;;;;;;6.22;4.80;;;17.30;99.90;;;;;;5071039;28;20316;-70
2021/06/09 05:25:50;;;;;;;7.35;4.72;;;17.30;99.90;;;;;;5071298;28;20225;-71
2021/06/09 05:28:17;;;;;;;7.15;5.03;;;17.30;99.90;;;;;;5071203;28;20240;-71
2021/06/09 05:30:45;;;;;;;6.20;4.88;;;17.40;99.90;;;;;;5070064;28;20588;-71
2021/06/09 05:33:12;;;;;;;5.85;4.38;;;17.40;99.90;;;;;;5071172;28;20202;-72
2021/06/09 05:35:40;;;;;;;9.10;4.97;;;17.40;99.90;;;;;;5071103;28;20248;-70
2021/06/09 05:38:07;;;;;;;8.60;5.10;;;17.50;99.90;;;;;;5071524;28;20206;-71
2021/06/09 05:40:35;;;;;;;5.95;5.35;;;17.50;99.90;;;;;;5070779;28;20202;-71
2021/06/09 05:43:01;;;;;;;6.15;5.57;;;17.60;99.90;;;;;;5070884;28;20717;-71
2021/06/09 05:45:29;;;;;;;7.03;5.00;;;17.60;99.90;;;;;;5070743;28;20222;-71
2021/06/09 05:47:56;;;;;;;5.82;5.22;;;17.80;99.90;;;;;;5071743;28;20202;-71
2021/06/09 05:50:25;;;;;;;5.82;5.32;;;17.70;99.90;;;;;;5071326;28;20303;-71
2021/06/09 05:52:56;;;;;;;5.80;5.32;;;17.80;99.90;;;;;;5070664;28;20290;-71
2021/06/09 05:55:25;;;;;;;8.38;5.85;;;17.80;99.90;;;;;;5071514;28;20210;-71
2021/06/09 05:57:53;;;;;;;6.55;5.10;;;17.90;99.90;;;;;;5070960;28;20579;-71
2021/06/09 06:00:23;;;;;;;7.75;6.07;;;18.00;99.90;;;;;;5070978;28;20286;-71
2021/06/09 06:02:51;;;;;;;7.35;6.13;;;18.20;99.90;;;;;;5070315;28;20234;-71
2021/06/09 06:05:18;;;;;;;7.18;6.47;;;18.10;99.90;;;;;;5070735;28;20216;-71
2021/06/09 06:07:45;;;;;;;7.65;6.95;;;18.30;99.90;;;;;;5070303;28;20198;-71
2021/06/09 06:10:14;;;;;;;7.80;5.78;;;18.20;99.90;;;;;;5056684;28;20205;-71
2021/06/09 06:12:43;;;;;;;7.20;6.57;;;18.30;99.90;;;;;;5070331;28;20206;-71
2021/06/09 06:15:12;;;;;;;7.43;6.55;;;18.40;99.90;;;;;;5070626;28;20594;-70
2021/06/09 06:17:39;;;;;;;11.25;7.47;;;18.50;99.90;;;;;;5070597;28;20214;-71
2021/06/09 06:20:06;;;;;;;8.23;7.45;;;18.70;99.90;;;;;;5070422;28;20213;-72
2021/06/09 06:22:33;;;;;;;8.05;6.38;;;18.70;99.90;;;;;;5069859;28;20604;-70
2021/06/09 06:25:01;;;;;;;8.65;7.75;;;18.80;99.90;;;;;;5070046;28;20210;-71
2021/06/09 06:27:30;;;;;;;14.48;6.93;;;18.80;99.90;;;;;;5070852;28;20282;-71
2021/06/09 06:29:57;;;;;;;7.85;7.15;;;18.70;99.90;;;;;;5069931;28;20712;-73
2021/06/09 06:32:25;;;;;;;8.32;7.10;;;18.80;99.90;;;;;;5070445;28;20217;-70
2021/06/09 06:34:53;;;;;;;8.80;7.90;;;18.90;99.90;;;;;;5068999;28;20360;-73
2021/06/09 06:37:24;;;;;;;7.82;7.03;;;18.90;99.90;;;;;;5069814;28;20592;-71
2021/06/09 06:39:51;;;;;;;9.70;8.32;;;18.90;99.90;;;;;;5069772;28;20210;-72
2021/06/09 06:42:18;;;;;;;8.32;7.50;;;19.00;99.90;;;;;;5069649;28;20240;-70
2021/06/09 06:44:47;;;;;;;11.88;7.30;;;19.00;99.90;;;;;;5070361;28;20335;-69
2021/06/09 06:47:15;;;;;;;11.27;9.10;;;19.20;99.90;;;;;;5070239;28;20206;-69
2021/06/09 06:49:43;;;;;;;11.13;9.45;;;19.30;99.90;;;;;;5070017;28;20209;-70
2021/06/09 06:52:10;;;;;;;11.27;10.13;;;19.30;99.90;;;;;;5069901;28;20693;-73
2021/06/09 06:54:37;;;;;;;10.55;9.45;;;19.30;99.90;;;;;;5069902;28;20218;-70
2021/06/09 06:57:04;;;;;;;20.00;11.18;;;19.30;99.90;;;;;;5070174;28;20673;-70
2021/06/09 06:59:32;;;;;;;12.60;10.93;;;19.40;99.90;;;;;;5069825;28;20206;-70
2021/06/09 07:02:03;;;;;;;13.35;10.48;;;19.40;99.90;;;;;;5077554;28;20201;-73
2021/06/09 07:04:32;;;;;;;10.60;9.60;;;19.30;99.90;;;;;;5069654;28;20617;-72
2021/06/09 07:06:59;;;;;;;14.32;10.23;;;19.30;99.90;;;;;;5071223;28;20293;-74
2021/06/09 07:09:25;;;;;;;11.52;10.43;;;19.40;99.90;;;;;;5077166;28;20580;-74
2021/06/09 07:11:52;;;;;;;12.20;10.88;;;19.30;99.90;;;;;;5071218;28;20697;-74
2021/06/09 07:14:23;;;;;;;12.07;11.07;;;19.40;99.90;;;;;;5073837;28;20217;-72
2021/06/09 07:16:51;;;;;;;16.30;12.05;;;19.30;99.90;;;;;;5075685;28;20217;-73
2021/06/09 07:19:19;;;;;;;12.07;10.65;;;19.40;99.90;;;;;;5077201;28;20210;-74
2021/06/09 07:21:45;;;;;;;12.63;11.07;;;19.60;99.90;;;;;;5072668;28;20214;-73
2021/06/09 07:24:12;;;;;;;11.05;10.05;;;19.60;99.90;;;;;;5079838;28;20282;-74
2021/06/09 07:26:42;;;;;;;11.82;10.63;;;19.80;99.90;;;;;;5069867;28;20214;-72
2021/06/09 07:29:09;;;;;;;12.02;10.82;;;19.90;99.90;;;;;;5070748;28;20206;-73
2021/06/09 07:31:37;;;;;;;12.13;10.77;;;20.10;99.90;;;;;;5071917;28;20202;-72
2021/06/09 07:34:05;;;;;;;11.23;9.88;;;20.80;99.90;;;;;;5071466;28;20202;-73
2021/06/09 07:36:41;;;;;;;12.00;10.70;;;20.40;99.90;;;;;;5079897;28;20254;-73
2021/06/09 07:39:11;;;;;;;12.07;10.80;;;20.30;99.90;;;;;;5065712;28;20213;-74
2021/06/09 07:41:42;;;;;;;9.32;8.52;;;20.40;99.90;;;;;;5076481;28;20681;-73
2021/06/09 07:44:10;;;;;;;9.85;8.95;;;22.80;99.90;;;;;;5069862;28;20229;-72
2021/06/09 07:46:39;;;;;;;9.93;9.20;;;23.30;99.90;;;;;;5073717;28;20202;-74
2021/06/09 07:49:09;;;;;;;10.52;9.48;;;22.30;99.90;;;;;;5079107;28;20209;-73
2021/06/09 07:51:37;;;;;;;9.75;8.95;;;21.90;99.90;;;;;;5069008;28;20201;-72
2021/06/09 07:54:08;;;;;;;9.15;8.35;;;21.90;99.90;;;;;;5073657;28;20202;-72
2021/06/09 07:56:36;;;;;;;8.18;7.38;;;22.20;99.90;;;;;;5074282;28;20591;-72
2021/06/09 07:59:04;;;;;;;8.80;7.40;;;23.10;99.90;;;;;;5081376;28;20609;-73
2021/06/09 08:01:32;;;;;;;9.85;7.55;;;23.60;99.90;;;;;;5079568;28;20206;-71
2021/06/09 08:03:59;;;;;;;9.50;8.50;;;24.10;99.90;;;;;;5081970;28;20232;-70
2021/06/09 08:06:26;;;;;;;9.02;8.23;;;24.20;99.90;;;;;;5084231;28;20210;-72
2021/06/09 08:08:54;;;;;;;8.40;7.63;;;25.00;99.90;;;;;;5079739;28;20202;-72
2021/06/09 08:11:21;;;;;;;10.00;7.78;;;24.10;99.90;;;;;;5073267;28;20215;-73
2021/06/09 08:13:48;;;;;;;8.70;7.65;;;24.10;99.90;;;;;;5073570;28;20233;-72
2021/06/09 08:16:16;;;;;;;8.80;7.85;;;24.60;99.90;;;;;;5075229;28;20296;-72
2021/06/09 08:18:44;;;;;;;9.35;8.65;;;25.70;99.90;;;;;;5074078;28;20255;-73
2021/06/09 08:21:12;;;;;;;7.28;6.57;;;24.10;99.90;;;;;;5076131;28;20209;-71
2021/06/09 08:23:40;;;;;;;7.25;6.55;;;23.30;99.90;;;;;;5072514;28;20229;-72
2021/06/09 08:26:10;;;;;;;8.95;8.05;;;23.10;99.90;;;;;;5082114;28;20209;-73
2021/06/09 08:28:37;;;;;;;8.65;7.95;;;22.60;99.90;;;;;;5077626;28;20229;-72
2021/06/09 08:31:05;;;;;;;6.95;6.22;;;22.50;99.90;;;;;;5081838;28;20210;-72
2021/06/09 08:33:34;;;;;;;8.43;7.30;;;22.40;99.90;;;;;;5083150;28;20209;-73
2021/06/09 08:36:01;;;;;;;8.35;6.38;;;22.40;99.90;;;;;;5079748;28;20209;-72
2021/06/09 08:38:27;;;;;;;6.95;6.35;;;22.60;99.90;;;;;;5072094;28;20210;-72
2021/06/09 08:40:54;;;;;;;7.40;6.55;;;22.80;99.90;;;;;;5077249;28;20688;-72
2021/06/09 08:43:22;;;;;;;8.32;7.05;;;22.80;99.90;;;;;;5078697;28;20774;-72
2021/06/09 08:45:49;;;;;;;6.70;6.20;;;23.40;99.90;;;;;;5079667;28;20279;-72
2021/06/09 08:48:18;;;;;;;6.38;5.78;;;23.80;99.90;;;;;;5085581;28;20218;-73
2021/06/09 08:50:48;;;;;;;10.40;6.22;;;24.00;99.90;;;;;;5084960;28;20206;-74
2021/06/09 08:53:19;;;;;;;7.60;5.47;;;23.80;99.90;;;;;;5072423;28;20635;-74
2021/06/09 08:55:46;;;;;;;6.35;5.65;;;24.00;99.90;;;;;;5072219;28;20585;-72
2021/06/09 08:58:14;;;;;;;6.32;5.82;;;24.50;99.90;;;;;;5073201;28;20206;-73
2021/06/09 09:00:43;;;;;;;6.75;6.18;;;26.90;99.90;;;;;;5072486;28;20202;-72
2021/06/09 09:03:10;;;;;;;7.45;6.85;;;26.80;99.90;;;;;;5071866;28;20241;-71
2021/06/09 09:05:37;;;;;;;6.70;6.00;;;26.10;99.90;;;;;;5078549;28;20197;-72
2021/06/09 09:08:04;;;;;;;6.72;6.22;;;26.40;99.90;;;;;;5076168;28;20212;-72
2021/06/09 09:10:32;;;;;;;7.97;7.28;;;25.90;99.90;;;;;;5081639;28;20677;-72
2021/06/09 09:13:00;;;;;;;7.40;6.72;;;25.70;99.90;;;;;;5085296;28;20258;-73
2021/06/09 09:15:27;;;;;;;7.63;5.80;;;25.60;99.90;;;;;;5082808;28;20233;-73
2021/06/09 09:17:56;;;;;;;7.13;5.13;;;25.20;99.90;;;;;;5086929;28;20250;-74
2021/06/09 09:20:25;;;;;;;6.70;6.00;;;25.60;99.90;;;;;;5083036;28;20263;-74
2021/06/09 09:22:53;;;;;;;6.90;6.30;;;25.60;99.90;;;;;;5087684;28;20216;-71
2021/06/09 09:25:21;;;;;;;7.22;5.43;;;25.30;99.90;;;;;;5084602;28;20251;-73
2021/06/09 09:27:56;;;;;;;5.80;4.65;;;25.60;99.90;;;;;;5088239;28;20582;-73
2021/06/09 09:30:24;;;;;;;5.53;4.63;;;26.90;99.90;;;;;;5080553;28;20250;-73
2021/06/09 09:33:04;;;;;;;6.78;6.18;;;26.80;99.90;;;;;;5071806;28;20214;-71
2021/06/09 09:35:32;;;;;;;5.05;4.65;;;26.10;99.90;;;;;;5071400;28;20230;-72
2021/06/09 09:38:15;;;;;;;6.90;4.60;;;26.70;99.90;;;;;;5074089;28;20202;-73
2021/06/09 09:41:00;;;;;;;5.47;4.97;;;26.60;99.90;;;;;;5073843;28;20209;-73
2021/06/09 09:43:47;;;;;;;4.78;4.47;;;26.10;99.90;;;;;;5078746;28;20711;-73
2021/06/09 09:46:16;;;;;;;4.47;4.07;;;25.80;99.90;;;;;;5068680;28;20606;-73
2021/06/09 09:49:04;;;;;;;6.25;4.35;;;25.90;99.90;;;;;;5079743;28;20206;-73
2021/06/09 09:51:32;;;;;;;10.35;5.35;;;26.20;99.90;;;;;;5076566;28;20202;-73
2021/06/09 09:54:00;;;;;;;5.28;4.55;;;27.00;99.90;;;;;;5079286;28;20634;-72
2021/06/09 09:56:28;;;;;;;4.90;4.45;;;27.60;99.90;;;;;;5077622;28;20206;-73
2021/06/09 09:58:59;;;;;;;4.65;4.05;;;28.80;99.90;;;;;;5082356;28;20323;-73
2021/06/09 10:01:28;;;;;;;6.32;4.15;;;31.40;99.90;;;;;;5078676;28;20272;-74
2021/06/09 10:03:57;;;;;;;3.75;3.47;;;30.80;99.90;;;;;;5076348;28;20711;-73
2021/06/09 10:06:27;;;;;;;5.07;4.57;;;30.50;99.90;;;;;;5071339;28;20205;-73
2021/06/09 10:08:55;;;;;;;4.53;4.07;;;30.80;99.90;;;;;;5068104;28;20630;-73
2021/06/09 10:11:23;;;;;;;5.00;4.55;;;30.60;99.90;;;;;;5071792;28;20234;-75
2021/06/09 10:13:50;;;;;;;4.32;3.92;;;31.90;99.90;;;;;;5068712;28;20208;-73
2021/06/09 10:16:31;;;;;;;5.13;4.22;;;33.90;99.90;;;;;;5075798;28;20204;-73
2021/06/09 10:19:07;;;;;;;4.65;4.35;;;36.10;99.90;;;;;;5072361;28;20548;-73
2021/06/09 10:21:35;;;;;;;6.95;4.57;;;37.10;99.90;;;;;;5071450;28;20266;-74
2021/06/09 10:24:06;;;;;;;4.13;3.72;;;37.30;99.90;;;;;;5072930;28;20233;-73
2021/06/09 10:26:33;;;;;;;4.55;4.22;;;36.80;99.90;;;;;;5066873;28;20247;-73
2021/06/09 10:29:10;;;;;;;5.03;4.13;;;37.10;99.90;;;;;;5067721;28;20201;-72
2021/06/09 10:31:39;;;;;;;4.47;3.83;;;36.90;99.90;;;;;;5068256;28;20641;-73
2021/06/09 10:34:07;;;;;;;4.78;3.95;;;36.70;99.90;;;;;;5069411;28;20631;-73
2021/06/09 10:36:35;;;;;;;4.30;3.50;;;33.30;99.90;;;;;;5070051;28;20587;-73
2021/06/09 10:39:02;;;;;;;3.88;3.53;;;30.00;99.90;;;;;;5071049;28;20210;-72
2021/06/09 10:41:30;;;;;;;3.92;3.63;;;28.20;99.90;;;;;;5072314;28;20229;-73
2021/06/09 10:44:02;;;;;;;7.50;6.35;;;28.00;99.90;;;;;;5068208;28;20237;-74
2021/06/09 10:46:29;;;;;;;6.03;5.10;;;27.80;99.90;;;;;;5069204;28;20229;-73
2021/06/09 10:48:59;;;;;;;4.65;4.25;;;27.70;99.90;;;;;;5070574;28;20205;-72
2021/06/09 10:51:27;;;;;;;5.72;4.57;;;27.30;99.90;;;;;;5068726;28;20297;-73
2021/06/09 10:53:56;;;;;;;3.70;3.40;;;27.40;99.90;;;;;;5067812;28;20206;-73
2021/06/09 10:56:24;;;;;;;6.00;4.18;;;27.40;99.90;;;;;;5069243;28;20696;-72
2021/06/09 10:58:50;;;;;;;3.85;3.22;;;27.40;99.90;;;;;;5069243;28;20669;-72
2021/06/09 11:01:21;;;;;;;4.80;3.58;;;27.00;99.90;;;;;;5069962;28;20213;-73
2021/06/09 11:03:49;;;;;;;3.63;3.33;;;27.60;99.90;;;;;;5069587;28;20233;-73
2021/06/09 11:06:15;;;;;;;5.03;3.05;;;27.70;99.90;;;;;;5069681;28;20588;-72
2021/06/09 11:08:43;;;;;;;2.65;2.45;;;27.00;99.90;;;;;;5068544;28;20210;-72
2021/06/09 11:11:21;;;;;;;4.43;2.78;;;26.70;99.90;;;;;;5069649;28;20650;-73
2021/06/09 11:13:48;;;;;;;2.90;2.55;;;27.00;99.90;;;;;;5071406;28;20210;-73
2021/06/09 11:16:17;;;;;;;3.08;2.80;;;26.70;99.90;;;;;;5062246;28;20207;-73
2021/06/09 11:18:46;;;;;;;2.58;2.38;;;26.60;99.90;;;;;;5062017;28;20662;-73
2021/06/09 11:21:15;;;;;;;2.75;2.55;;;26.70;99.90;;;;;;5069209;28;20268;-73
2021/06/09 11:23:45;;;;;;;2.90;2.22;;;26.70;99.90;;;;;;5068329;28;20701;-73
2021/06/09 11:26:26;;;;;;;3.20;2.67;;;26.60;99.90;;;;;;5067801;28;20280;-73
2021/06/09 11:28:52;;;;;;;3.85;3.40;;;27.20;99.90;;;;;;5069210;28;20214;-72
2021/06/09 11:31:25;;;;;;;3.47;3.17;;;27.30;99.90;;;;;;5078471;28;20283;-72
2021/06/09 11:33:59;;;;;;;3.17;2.88;;;27.00;99.90;;;;;;5074558;28;20209;-74
2021/06/09 11:36:38;;;;;;;3.40;3.10;;;27.20;99.90;;;;;;5074921;28;20201;-72
2021/06/09 11:39:11;;;;;;;6.45;3.45;;;27.00;99.90;;;;;;5072005;28;20737;-72
2021/06/09 11:41:40;;;;;;;2.50;2.22;;;27.10;99.90;;;;;;5074389;28;21492;-73
2021/06/09 11:44:08;;;;;;;2.53;2.33;;;27.70;99.90;;;;;;5072560;28;20324;-73
2021/06/09 11:46:36;;;;;;;6.90;2.85;;;27.80;99.90;;;;;;5072265;28;20629;-73
2021/06/09 11:49:05;;;;;;;10.38;3.35;;;27.70;99.90;;;;;;5074228;28;20640;-73
2021/06/09 11:51:36;;;;;;;4.97;2.80;;;27.50;99.90;;;;;;5078039;28;20208;-73
2021/06/09 11:54:22;;;;;;;3.30;3.00;;;27.60;99.90;;;;;;5080739;28;20203;-76
2021/06/09 11:56:50;;;;;;;3.47;3.17;;;27.40;99.90;;;;;;5079622;28;20201;-73
2021/06/09 11:59:22;;;;;;;2.50;2.17;;;27.40;99.90;;;;;;5079650;28;20213;-75
2021/06/09 12:01:51;;;;;;;3.42;2.50;;;27.70;99.90;;;;;;5071515;28;20298;-74
2021/06/09 12:04:22;;;;;;;2.40;2.20;;;27.70;99.90;;;;;;5072816;28;20233;-74
2021/06/09 12:06:51;;;;;;;6.25;2.58;;;27.70;99.90;;;;;;5072391;28;20210;-74
2021/06/09 12:09:20;;;;;;;2.92;2.72;;;27.60;99.90;;;;;;5072848;28;20218;-72
2021/06/09 12:11:48;;;;;;;3.90;2.45;;;27.70;99.90;;;;;;5072176;28;20206;-74
2021/06/09 12:14:16;;;;;;;3.38;2.70;;;27.90;99.90;;;;;;5072818;28;20206;-74
2021/06/09 12:16:43;;;;;;;3.20;2.55;;;28.00;99.90;;;;;;5072403;28;20202;-74
2021/06/09 12:19:33;;;;;;;3.60;3.20;;;27.60;99.90;;;;;;5072745;28;20691;-74
2021/06/09 12:22:03;;;;;;;2.88;2.67;;;27.80;99.90;;;;;;5072310;28;20217;-74
2021/06/09 12:24:31;;;;;;;2.75;2.55;;;27.90;99.90;;;;;;5072438;28;20237;-74
2021/06/09 12:27:01;;;;;;;2.83;2.63;;;28.20;99.90;;;;;;5072427;28;20209;-74
2021/06/09 12:29:31;;;;;;;3.10;2.58;;;28.30;99.90;;;;;;5072621;28;20614;-74
2021/06/09 12:31:59;;;;;;;3.25;2.30;;;28.20;99.90;;;;;;5072315;28;20205;-73
2021/06/09 12:34:28;;;;;;;3.45;3.17;;;28.00;99.90;;;;;;5073164;28;20206;-75
2021/06/09 12:37:00;;;;;;;3.78;2.50;;;28.30;99.90;;;;;;5071992;28;20218;-76
2021/06/09 12:39:27;;;;;;;3.40;2.60;;;28.10;99.90;;;;;;5072263;28;20220;-76
2021/06/09 12:41:56;;;;;;;2.80;2.33;;;27.70;99.90;;;;;;5071530;28;20209;-75
2021/06/09 12:44:23;;;;;;;2.45;2.25;;;27.80;99.90;;;;;;5072504;28;20237;-76
2021/06/09 12:46:52;;;;;;;3.28;3.08;;;27.70;99.90;;;;;;5071958;28;20704;-75
2021/06/09 12:49:23;;;;;;;3.00;2.25;;;27.70;99.90;;;;;;5072040;28;20214;-75
2021/06/09 12:52:09;;;;;;;3.50;3.20;;;27.70;99.90;;;;;;5071896;28;20214;-75
2021/06/09 12:54:36;;;;;;;3.78;2.53;;;28.40;99.90;;;;;;5059037;28;20692;-75